Time;durP1;ratioP1;P1;durP2;ratioP2;P2;SDS_P1;SDS_P2;PMS_P1;PMS_P2;Temp;Humidity;BMP_temperature;BMP_pressure;BME280_temperature;BME280_humidity;BME280_pressure;Samples;Min_cycle;Max_cycle;Signal;HPM_P1;HPM_P2
2022/08/19 00:01:10;;;;;;;28.52;20.45;;;;;;;17.70;100.00;96322.72;4965826;28;20042;-75
2022/08/19 00:03:35;;;;;;;32.92;20.55;;;;;;;17.75;100.00;96319.97;4968379;28;20533;-75
2022/08/19 00:06:01;;;;;;;35.92;21.15;;;;;;;17.70;100.00;96326.25;4968403;28;21026;-75
2022/08/19 00:08:28;;;;;;;32.17;21.10;;;;;;;17.65;100.00;96322.78;4966828;28;20728;-75
2022/08/19 00:10:53;;;;;;;32.00;19.58;;;;;;;17.65;100.00;96333.59;4966406;28;20430;-75
2022/08/19 00:13:18;;;;;;;35.17;22.05;;;;;;;17.65;100.00;96333.59;4969247;28;20108;-75
2022/08/19 00:15:44;;;;;;;29.88;19.75;;;;;;;17.59;100.00;96334.78;4967795;28;20046;-74
2022/08/19 00:18:10;;;;;;;33.78;20.23;;;;;;;17.47;100.00;96333.34;4968110;28;20706;-74
2022/08/19 00:20:38;;;;;;;29.67;20.33;;;;;;;17.52;100.00;96336.00;4970099;28;20051;-74
2022/08/19 00:23:03;;;;;;;29.05;19.58;;;;;;;17.55;100.00;96331.88;4966282;28;20408;-74
2022/08/19 00:25:29;;;;;;;31.45;20.58;;;;;;;17.59;100.00;96330.22;4970886;28;20050;-74
2022/08/19 00:27:54;;;;;;;29.70;20.17;;;;;;;17.63;100.00;96331.19;4968120;28;20070;-74
2022/08/19 00:30:19;;;;;;;26.55;18.98;;;;;;;17.65;100.00;96337.13;4968273;28;20042;-74
2022/08/19 00:32:45;;;;;;;31.15;19.95;;;;;;;17.60;100.00;96329.09;4967951;28;20055;-74
2022/08/19 00:35:11;;;;;;;29.30;19.58;;;;;;;17.52;100.00;96332.50;4967165;28;20486;-74
2022/08/19 00:37:37;;;;;;;27.33;19.48;;;;;;;17.52;100.00;96330.59;4966315;28;20042;-74
2022/08/19 00:40:06;;;;;;;29.33;19.17;;;;;;;17.39;100.00;96336.72;4967018;28;20416;-75
2022/08/19 00:42:31;;;;;;;28.23;19.55;;;;;;;17.32;100.00;96330.91;4966414;28;20804;-74
2022/08/19 00:44:57;;;;;;;28.73;19.67;;;;;;;17.36;100.00;96329.22;4967371;28;20251;-74
2022/08/19 00:47:23;;;;;;;31.27;19.23;;;;;;;17.40;100.00;96326.72;4966044;28;20069;-74
2022/08/19 00:49:56;;;;;;;29.17;19.10;;;;;;;17.43;100.00;96316.13;4974868;28;20383;-74
2022/08/19 00:52:29;;;;;;;27.33;18.75;;;;;;;17.41;100.00;96312.91;4973868;28;20053;-74
2022/08/19 00:54:56;;;;;;;28.65;19.33;;;;;;;17.40;100.00;96315.91;4973554;28;20066;-74
2022/08/19 00:57:27;;;;;;;26.70;18.27;;;;;;;17.24;100.00;96312.63;4973826;28;20038;-74
2022/08/19 00:59:56;;;;;;;27.55;18.23;;;;;;;16.93;100.00;96318.50;4971836;28;20046;-74
2022/08/19 01:02:22;;;;;;;28.25;19.27;;;;;;;16.90;100.00;96316.38;4972129;28;20046;-74
2022/08/19 01:04:48;;;;;;;29.77;20.10;;;;;;;16.99;100.00;96316.53;4971880;28;20058;-74
2022/08/19 01:07:13;;;;;;;31.20;20.58;;;;;;;16.96;100.00;96314.41;4970971;28;20049;-75
2022/08/19 01:09:39;;;;;;;31.85;19.63;;;;;;;16.92;100.00;96319.59;4972164;28;20455;-74
2022/08/19 01:12:05;;;;;;;29.35;19.38;;;;;;;16.97;100.00;96319.53;4975263;28;20565;-74
2022/08/19 01:14:31;;;;;;;29.13;19.58;;;;;;;17.00;100.00;96318.13;4972213;28;20596;-74
2022/08/19 01:16:59;;;;;;;28.13;18.98;;;;;;;17.03;100.00;96312.13;4974020;28;20825;-75
2022/08/19 01:19:50;;;;;;;28.95;19.15;;;;;;;17.05;100.00;96315.38;4973612;28;20498;-74
2022/08/19 01:22:46;;;;;;;27.67;18.70;;;;;;;16.97;100.00;96314.13;4972628;28;20109;-74
2022/08/19 01:25:13;;;;;;;26.92;18.70;;;;;;;16.92;100.00;96303.38;4971328;28;20077;-74
2022/08/19 01:27:42;;;;;;;26.85;17.88;;;;;;;16.95;100.00;96310.88;4973677;28;20401;-75
2022/08/19 01:30:08;;;;;;;28.77;18.23;;;;;;;16.96;100.00;96300.88;4971703;28;20066;-74
2022/08/19 01:32:34;;;;;;;25.15;18.48;;;;;;;16.98;100.00;96296.00;4973841;28;20215;-74
2022/08/19 01:35:02;;;;;;;28.80;18.35;;;;;;;16.92;100.00;96283.66;4973385;28;20338;-75
2022/08/19 01:37:28;;;;;;;24.70;18.17;;;;;;;16.93;100.00;96288.75;4975627;28;20133;-74
2022/08/19 01:39:54;;;;;;;26.55;18.35;;;;;;;16.89;100.00;96295.88;4972778;28;20653;-74
2022/08/19 01:42:19;;;;;;;28.02;19.42;;;;;;;16.82;100.00;96302.72;4971740;28;20180;-74
2022/08/19 01:44:45;;;;;;;28.38;18.58;;;;;;;16.69;100.00;96301.53;4972829;28;20042;-74
2022/08/19 01:47:10;;;;;;;25.42;17.85;;;;;;;16.69;100.00;96299.63;4974826;28;20076;-75
2022/08/19 01:49:37;;;;;;;25.83;17.67;;;;;;;16.61;100.00;96289.47;4973341;28;20039;-75
2022/08/19 01:52:04;;;;;;;25.92;17.63;;;;;;;16.60;100.00;96282.44;4975717;28;20334;-75
2022/08/19 01:54:29;;;;;;;27.23;18.60;;;;;;;16.63;100.00;96281.84;4973520;28;20224;-74
2022/08/19 01:57:04;;;;;;;24.77;16.30;;;;;;;16.60;100.00;96276.25;4976356;28;20121;-74
2022/08/19 01:59:31;;;;;;;24.02;16.13;;;;;;;16.52;100.00;96285.00;4968866;28;20456;-74
2022/08/19 02:01:57;;;;;;;25.02;16.20;;;;;;;16.47;100.00;96282.34;4967642;28;20046;-75
2022/08/19 02:04:23;;;;;;;25.13;17.00;;;;;;;16.49;100.00;96280.16;4968608;28;20057;-75
2022/08/19 02:06:48;;;;;;;26.65;17.65;;;;;;;16.50;100.00;96270.97;4970191;28;20398;-74
2022/08/19 02:09:14;;;;;;;28.10;16.73;;;;;;;16.44;100.00;96268.34;4970171;28;20051;-74
2022/08/19 02:11:41;;;;;;;24.30;16.98;;;;;;;16.42;100.00;96264.34;4969493;28;20470;-74
2022/08/19 02:14:08;;;;;;;25.63;17.55;;;;;;;16.38;100.00;96269.50;4970325;28;20049;-74
2022/08/19 02:16:34;;;;;;;35.00;21.08;;;;;;;16.41;100.00;96273.50;4968931;28;20393;-75
2022/08/19 02:19:00;;;;;;;26.05;17.92;;;;;;;16.41;100.00;96277.00;4970593;28;20121;-75
2022/08/19 02:21:26;;;;;;;26.63;18.40;;;;;;;16.43;100.00;96282.16;4969457;28;20116;-74
2022/08/19 02:23:51;;;;;;;30.20;19.73;;;;;;;16.31;100.00;96269.03;4969801;28;20146;-74
2022/08/19 02:26:18;;;;;;;28.58;19.75;;;;;;;16.27;100.00;96284.22;4971403;28;20141;-74
2022/08/19 02:28:44;;;;;;;31.92;20.17;;;;;;;16.27;100.00;96280.72;4981504;28;20693;-74
2022/08/19 02:31:17;;;;;;;28.48;19.45;;;;;;;16.27;100.00;96284.22;4972325;28;20050;-74
2022/08/19 02:33:43;;;;;;;30.35;20.05;;;;;;;16.27;100.00;96281.53;4968888;28;20077;-74
2022/08/19 02:36:10;;;;;;;30.15;20.33;;;;;;;16.29;100.00;96283.94;4970461;28;20043;-74
2022/08/19 02:38:36;;;;;;;28.77;19.40;;;;;;;16.28;100.00;96280.44;4971503;28;20294;-75
2022/08/19 02:41:16;;;;;;;29.50;20.27;;;;;;;16.30;100.00;96289.03;4969351;28;20080;-74
2022/08/19 02:43:42;;;;;;;30.23;19.75;;;;;;;16.33;100.00;96287.66;4969609;28;20089;-74
2022/08/19 02:46:22;;;;;;;29.58;19.90;;;;;;;16.33;100.00;96282.25;4969070;28;20363;-74
2022/08/19 02:48:53;;;;;;;30.67;20.10;;;;;;;16.30;100.00;96288.25;4983583;28;20042;-75
2022/08/19 02:51:25;;;;;;;31.55;18.65;;;;;;;16.26;100.00;96288.00;4970755;28;20575;-74
2022/08/19 02:53:50;;;;;;;30.17;19.73;;;;;;;16.24;100.00;96292.09;4969234;28;20540;-74
2022/08/19 02:56:17;;;;;;;31.50;20.42;;;;;;;16.15;100.00;96297.31;4970616;28;20056;-74
2022/08/19 02:58:43;;;;;;;28.08;19.02;;;;;;;15.96;100.00;96280.28;4971605;28;20075;-74
2022/08/19 03:01:10;;;;;;;28.13;19.33;;;;;;;16.03;100.00;96289.63;4968785;28;20160;-74
2022/08/19 03:03:36;;;;;;;30.63;19.65;;;;;;;16.03;100.00;96291.50;4973007;28;20589;-74
2022/08/19 03:06:13;;;;;;;28.33;17.85;;;;;;;15.99;100.00;96285.09;4968593;28;20053;-75
2022/08/19 03:08:41;;;;;;;29.05;19.58;;;;;;;15.86;100.00;96289.25;4968920;28;20328;-74
2022/08/19 03:11:16;;;;;;;36.28;19.45;;;;;;;15.81;100.00;96297.44;4969945;28;20383;-75
2022/08/19 03:13:43;;;;;;;33.03;19.33;;;;;;;15.80;100.00;96307.41;4969015;28;20042;-74
2022/08/19 03:16:09;;;;;;;26.55;17.35;;;;;;;15.82;100.00;96301.72;4982054;28;20429;-75
2022/08/19 03:18:34;;;;;;;31.55;19.77;;;;;;;15.75;100.00;96310.16;4969692;28;20076;-74
2022/08/19 03:21:00;;;;;;;30.00;18.35;;;;;;;15.75;100.00;96303.97;4968903;28;20441;-74
2022/08/19 03:23:25;;;;;;;30.92;18.42;;;;;;;15.75;100.00;96299.38;4969731;28;20484;-74
2022/08/19 03:25:53;;;;;;;27.60;18.20;;;;;;;15.74;100.00;96302.34;4967670;28;20042;-74
2022/08/19 03:28:20;;;;;;;26.63;17.77;;;;;;;15.66;100.00;96305.66;4986146;28;20044;-75
2022/08/19 03:30:58;;;;;;;29.17;18.23;;;;;;;15.48;100.00;96323.31;4968505;28;20042;-74
2022/08/19 03:33:24;;;;;;;27.60;18.05;;;;;;;15.50;100.00;96323.84;4972449;28;20065;-74
2022/08/19 03:36:12;;;;;;;29.17;17.67;;;;;;;15.51;100.00;96317.38;4968768;28;20339;-75
2022/08/19 03:38:41;;;;;;;28.85;17.77;;;;;;;15.51;100.00;96301.19;4969205;28;20038;-74
2022/08/19 03:41:10;;;;;;;31.05;18.27;;;;;;;15.49;100.00;96301.47;4966446;28;20034;-74
2022/08/19 03:43:38;;;;;;;25.75;18.55;;;;;;;15.44;100.00;96306.91;4967425;28;20062;-75
2022/08/19 03:46:10;;;;;;;29.17;17.95;;;;;;;15.31;100.00;96305.66;4968380;28;20081;-74
2022/08/19 03:48:38;;;;;;;49.55;19.63;;;;;;;15.18;100.00;96303.63;4966537;28;20057;-74
2022/08/19 03:51:04;;;;;;;50.90;18.38;;;;;;;15.22;100.00;96318.13;4969608;28;20120;-74
2022/08/19 03:53:31;;;;;;;40.97;18.80;;;;;;;15.26;100.00;96324.56;4966511;28;20050;-74
2022/08/19 03:55:59;;;;;;;46.17;19.17;;;;;;;15.32;100.00;96325.31;4968386;28;20036;-75
2022/08/19 03:58:28;;;;;;;30.30;18.20;;;;;;;15.31;100.00;96321.81;4968172;28;20046;-75
2022/08/19 04:00:57;;;;;;;31.25;18.08;;;;;;;15.33;100.00;96325.06;4967148;28;20073;-74
2022/08/19 04:03:24;;;;;;;28.80;18.15;;;;;;;15.37;100.00;96319.91;4966503;28;20516;-75
2022/08/19 04:05:50;;;;;;;26.85;17.50;;;;;;;15.36;100.00;96330.97;4968104;28;20094;-74
2022/08/19 04:08:19;;;;;;;39.85;18.27;;;;;;;15.37;100.00;96314.50;4968214;28;20534;-74
2022/08/19 04:10:46;;;;;;;52.45;19.00;;;;;;;15.33;100.00;96322.38;4968198;28;20120;-74
2022/08/19 04:13:12;;;;;;;39.90;18.25;;;;;;;15.24;100.00;96323.22;4968314;28;20050;-74
2022/08/19 04:15:41;;;;;;;40.78;17.88;;;;;;;15.18;100.00;96322.47;4967364;28;20097;-74
2022/08/19 04:18:11;;;;;;;37.83;18.20;;;;;;;15.19;100.00;96328.66;4969773;28;20042;-74
2022/08/19 04:20:45;;;;;;;33.95;19.42;;;;;;;15.25;100.00;96330.22;4967493;28;20049;-75
2022/08/19 04:23:13;;;;;;;34.97;18.90;;;;;;;15.27;100.00;96330.78;4968338;28;20042;-74
2022/08/19 04:25:41;;;;;;;43.35;19.75;;;;;;;15.26;100.00;96335.34;4971473;28;20420;-74
2022/08/19 04:28:09;;;;;;;28.27;18.60;;;;;;;15.34;100.00;96336.66;4969662;28;20342;-74
2022/08/19 04:30:44;;;;;;;28.33;18.73;;;;;;;15.41;100.00;96334.44;4967033;28;20221;-74
2022/08/19 04:33:11;;;;;;;28.83;19.05;;;;;;;15.41;100.00;96339.84;4962650;28;20232;-74
2022/08/19 04:35:41;;;;;;;27.30;18.33;;;;;;;15.44;100.00;96338.44;4965906;28;20368;-74
2022/08/19 04:38:08;;;;;;;32.23;19.60;;;;;;;15.48;100.00;96345.69;4968284;28;20529;-74
2022/08/19 04:43:22;;;;;;;39.00;20.52;;;;;;;15.51;100.00;96357.81;4966570;28;20034;-74
2022/08/19 04:45:48;;;;;;;30.83;20.20;;;;;;;15.55;100.00;96361.53;4966660;28;20540;-74
2022/08/19 04:48:14;;;;;;;34.47;20.33;;;;;;;15.56;100.00;96360.44;4966897;28;20038;-74
2022/08/19 04:50:41;;;;;;;34.42;21.10;;;;;;;15.59;100.00;96354.50;4966462;28;20039;-74
2022/08/19 04:53:07;;;;;;;33.88;20.77;;;;;;;15.62;100.00;96345.06;4968444;28;20046;-75
2022/08/19 04:55:33;;;;;;;33.80;19.80;;;;;;;15.69;100.00;96346.34;4968278;28;20046;-75
2022/08/19 04:57:59;;;;;;;31.35;20.52;;;;;;;15.70;100.00;96347.97;4967158;28;20126;-74
2022/08/19 05:00:25;;;;;;;29.92;20.15;;;;;;;15.68;100.00;96346.63;4966914;28;20070;-74
2022/08/19 05:02:50;;;;;;;39.65;19.95;;;;;;;15.68;100.00;96347.44;4965481;28;20245;-74
2022/08/19 05:05:17;;;;;;;32.55;19.92;;;;;;;15.70;100.00;96350.66;4965307;28;20073;-74
2022/08/19 05:07:42;;;;;;;34.80;21.15;;;;;;;15.64;100.00;96354.50;4969510;28;20561;-74
2022/08/19 05:10:08;;;;;;;29.42;19.83;;;;;;;15.64;100.00;96351.81;4966055;28;20136;-74
2022/08/19 05:12:34;;;;;;;33.85;21.98;;;;;;;15.67;100.00;96355.81;4966010;28;20142;-74
2022/08/19 05:15:00;;;;;;;37.05;21.13;;;;;;;15.69;100.00;96361.72;4965832;28;20333;-75
2022/08/19 05:17:26;;;;;;;34.15;21.60;;;;;;;15.74;100.00;96362.50;4967580;28;20409;-74
2022/08/19 05:22:37;;;;;;;33.92;21.10;;;;;;;15.88;100.00;96351.84;4967010;28;20187;-74
2022/08/19 05:25:08;;;;;;;30.30;20.65;;;;;;;15.90;100.00;96357.78;4966033;28;20046;-74
2022/08/19 05:27:34;;;;;;;33.40;21.75;;;;;;;15.89;100.00;96353.47;4969993;28;20050;-74
2022/08/19 05:30:01;;;;;;;31.05;20.73;;;;;;;15.86;100.00;96357.50;4967910;28;20053;-74
2022/08/19 05:32:27;;;;;;;32.55;21.50;;;;;;;15.86;100.00;96354.81;4983259;28;20047;-75
2022/08/19 05:34:53;;;;;;;33.28;22.63;;;;;;;15.83;100.00;96357.28;4969844;28;20035;-74
2022/08/19 05:37:19;;;;;;;34.38;23.67;;;;;;;15.82;100.00;96353.78;4970638;28;20273;-74
2022/08/19 05:39:46;;;;;;;40.15;26.67;;;;;;;15.84;100.00;96362.41;4970168;28;20049;-73
2022/08/19 05:42:12;;;;;;;40.42;27.00;;;;;;;15.86;100.00;96362.09;4971861;28;20049;-74
2022/08/19 05:44:43;;;;;;;39.03;26.05;;;;;;;15.78;100.00;96357.31;4970544;28;20034;-74
2022/08/19 05:47:08;;;;;;;40.28;25.30;;;;;;;15.80;100.00;96355.97;4970929;28;20053;-73
2022/08/19 05:49:36;;;;;;;38.65;25.30;;;;;;;15.82;100.00;96350.28;4970187;28;20395;-73
2022/08/19 05:52:07;;;;;;;39.25;26.15;;;;;;;15.73;100.00;96338.50;4971954;28;20117;-73
2022/08/19 05:54:33;;;;;;;38.10;25.10;;;;;;;15.72;100.00;96361.16;4969826;28;20486;-74
2022/08/19 05:57:00;;;;;;;37.67;25.42;;;;;;;15.70;100.00;96358.75;4972290;28;20517;-74
2022/08/19 05:59:26;;;;;;;37.65;25.55;;;;;;;15.82;100.00;96359.19;4970110;28;20563;-74
2022/08/19 06:01:55;;;;;;;36.88;24.35;;;;;;;15.84;100.00;96358.91;4971077;28;20211;-74
2022/08/19 06:04:21;;;;;;;41.42;24.40;;;;;;;15.75;100.00;96358.72;4969524;28;20185;-74
2022/08/19 06:06:50;;;;;;;38.88;24.60;;;;;;;15.72;100.00;96367.38;4970259;28;20050;-74
2022/08/19 06:09:15;;;;;;;37.67;24.45;;;;;;;15.72;100.00;96367.38;4967789;28;20462;-74
2022/08/19 06:11:45;;;;;;;36.85;23.88;;;;;;;15.72;100.00;96362.00;4969615;28;20030;-74
2022/08/19 06:14:14;;;;;;;37.63;23.83;;;;;;;15.84;100.00;96356.19;4971870;28;20039;-74
2022/08/19 06:16:50;;;;;;;34.25;23.58;;;;;;;15.90;100.00;96346.19;4970234;28;20035;-74
2022/08/19 06:19:17;;;;;;;34.55;23.15;;;;;;;16.06;100.00;96369.22;4970517;28;20383;-73
2022/08/19 06:21:46;;;;;;;37.33;23.55;;;;;;;16.17;100.00;96360.72;4968601;28;20335;-74
2022/08/19 06:24:14;;;;;;;37.55;23.73;;;;;;;16.33;100.00;96368.66;4970586;28;20105;-73
2022/08/19 06:26:44;;;;;;;35.28;23.27;;;;;;;16.46;100.00;96367.97;4973189;28;20130;-73
2022/08/19 06:29:13;;;;;;;36.10;23.55;;;;;;;16.55;100.00;96362.72;4971171;28;20134;-74
2022/08/19 06:31:43;;;;;;;35.70;23.27;;;;;;;16.64;100.00;96359.09;4969381;28;20054;-73
2022/08/19 06:34:09;;;;;;;33.77;23.30;;;;;;;16.87;100.00;96362.09;4955391;28;20098;-74
2022/08/19 06:36:38;;;;;;;36.63;23.75;;;;;;;17.14;100.00;96373.06;4970989;28;20117;-73
2022/08/19 06:39:06;;;;;;;32.95;22.63;;;;;;;17.32;100.00;96374.16;4969229;28;20039;-73
2022/08/19 06:41:35;;;;;;;34.22;22.30;;;;;;;17.26;100.00;96386.94;4970134;28;20050;-73
2022/08/19 06:44:00;;;;;;;33.47;22.33;;;;;;;17.44;100.00;96385.34;4970876;28;20375;-74
2022/08/19 06:46:27;;;;;;;36.92;23.08;;;;;;;17.60;100.00;96382.41;4969768;28;20426;-74
2022/08/19 06:48:54;;;;;;;32.88;22.60;;;;;;;17.68;100.00;96387.94;4969657;28;20047;-73
2022/08/19 06:51:23;;;;;;;32.22;22.60;;;;;;;17.63;100.00;96392.63;4972313;28;20050;-73
2022/08/19 06:53:53;;;;;;;31.05;22.85;;;;;;;17.66;100.00;96400.16;4985152;28;20565;-73
2022/08/19 06:56:21;;;;;;;34.67;22.80;;;;;;;17.75;100.00;96401.94;4970337;28;20076;-73
2022/08/19 06:58:51;;;;;;;31.42;22.02;;;;;;;17.90;100.00;96414.41;4970328;28;20671;-73
2022/08/19 07:01:17;;;;;;;31.98;22.25;;;;;;;18.00;100.00;96411.53;4970067;28;20051;-74
2022/08/19 07:03:42;;;;;;;31.60;21.85;;;;;;;18.02;100.00;96412.03;4968797;28;20830;-74
2022/08/19 07:06:12;;;;;;;34.10;20.98;;;;;;;18.17;100.00;96407.47;4968120;28;20157;-74
2022/08/19 07:08:40;;;;;;;37.37;21.60;;;;;;;18.12;100.00;96410.25;4967188;28;20405;-73
2022/08/19 07:11:07;;;;;;;36.40;22.33;;;;;;;17.93;100.00;96404.91;4966455;28;20047;-73
2022/08/19 07:13:36;;;;;;;33.40;22.48;;;;;;;17.78;100.00;96412.16;4969568;28;20070;-74
2022/08/19 07:16:10;;;;;;;33.25;22.02;;;;;;;17.73;100.00;96422.25;4968738;28;20038;-73
2022/08/19 07:18:36;;;;;;;32.80;21.65;;;;;;;17.70;100.00;96422.81;4967419;28;20129;-74
2022/08/19 07:21:07;;;;;;;32.45;22.58;;;;;;;17.66;100.00;96422.59;4968908;28;20053;-73
2022/08/19 07:23:33;;;;;;;35.22;23.02;;;;;;;17.64;100.00;96424.00;4970705;28;20044;-74
2022/08/19 07:26:04;;;;;;;35.75;23.13;;;;;;;17.66;100.00;96427.19;4982692;28;20084;-73
2022/08/19 07:28:30;;;;;;;37.22;23.20;;;;;;;17.69;100.00;96435.56;4970633;28;20541;-73
2022/08/19 07:30:55;;;;;;;35.97;22.10;;;;;;;17.78;100.00;96424.91;4969954;28;20116;-73
2022/08/19 07:33:21;;;;;;;34.10;23.27;;;;;;;17.96;100.00;96436.78;4969389;28;20158;-73
2022/08/19 07:35:46;;;;;;;32.83;23.13;;;;;;;18.18;100.00;96428.03;4967878;28;20320;-74
2022/08/19 07:38:12;;;;;;;32.05;22.08;;;;;;;18.53;100.00;96440.13;4970763;28;20069;-74
2022/08/19 07:40:37;;;;;;;34.67;23.05;;;;;;;18.82;100.00;96442.56;4968093;28;20466;-74
2022/08/19 07:43:02;;;;;;;31.58;21.65;;;;;;;18.98;100.00;96441.16;4967450;28;20520;-73
2022/08/19 07:45:28;;;;;;;37.90;23.73;;;;;;;19.13;100.00;96446.25;4972047;28;20173;-73
2022/08/19 07:47:54;;;;;;;38.78;24.00;;;;;;;19.09;100.00;96439.84;4968470;28;20152;-73
2022/08/19 07:50:20;;;;;;;32.42;22.58;;;;;;;19.05;100.00;96438.84;4968198;28;20042;-74
2022/08/19 07:52:46;;;;;;;39.40;24.67;;;;;;;19.17;100.00;96450.00;4969106;28;20061;-73
2022/08/19 07:55:12;;;;;;;36.72;24.65;;;;;;;19.21;100.00;96433.91;4968857;28;20042;-73
2022/08/19 07:57:38;;;;;;;39.03;22.67;;;;;;;19.32;100.00;96434.50;4967694;28;20090;-74
2022/08/19 08:00:05;;;;;;;36.42;24.95;;;;;;;19.29;100.00;96437.81;4932026;28;20537;-74
2022/08/19 08:02:39;;;;;;;40.10;26.25;;;;;;;19.22;100.00;96427.38;4968425;28;20050;-74
2022/08/19 08:10:33;;;;;;;36.17;24.65;;;;;;;19.19;100.00;96431.50;4967898;28;20042;-73
2022/08/19 08:12:59;;;;;;;34.22;25.35;;;;;;;19.32;100.00;96429.06;4968695;28;20560;-73
2022/08/19 08:15:24;;;;;;;35.33;25.67;;;;;;;19.31;100.00;96430.97;4965762;28;20046;-74
2022/08/19 08:17:52;;;;;;;45.78;25.38;;;;;;;19.20;100.00;96435.81;4970386;28;20206;-73
2022/08/19 08:20:18;;;;;;;36.17;26.27;;;;;;;19.21;100.00;96433.91;4974232;28;20436;-74
2022/08/19 08:25:31;;;;;;;37.63;25.00;;;;;;;19.24;100.00;96432.50;4966181;28;20209;-74
2022/08/19 08:27:59;;;;;;;37.50;23.80;;;;;;;19.10;100.00;96437.94;4969092;28;20406;-74
2022/08/19 08:30:29;;;;;;;37.28;25.50;;;;;;;19.29;100.00;96438.59;4967174;28;20096;-75
2022/08/19 08:32:55;;;;;;;36.75;24.02;;;;;;;19.34;100.00;96432.28;4968543;28;20050;-74
2022/08/19 08:35:23;;;;;;;34.63;22.77;;;;;;;19.26;100.00;96433.78;4967562;28;20050;-74
2022/08/19 08:37:51;;;;;;;37.25;24.38;;;;;;;19.16;100.00;96437.53;4967010;28;20071;-73
2022/08/19 08:40:38;;;;;;;38.80;23.13;;;;;;;19.27;100.00;96429.19;4967028;28;20402;-74
2022/08/19 08:43:09;;;;;;;32.35;23.15;;;;;;;19.32;100.00;96439.94;4965983;28;20045;-73
2022/08/19 08:45:44;;;;;;;40.53;23.58;;;;;;;19.43;100.00;96428.53;4966181;28;20097;-74
2022/08/19 08:48:31;;;;;;;31.67;22.65;;;;;;;19.57;100.00;96436.66;4967945;28;20527;-74
2022/08/19 08:50:58;;;;;;;32.85;22.70;;;;;;;19.63;100.00;96426.50;4967186;28;20057;-74
2022/08/19 08:53:25;;;;;;;35.38;22.67;;;;;;;19.80;100.00;96428.56;4969108;28;20045;-73
2022/08/19 08:55:51;;;;;;;29.77;21.33;;;;;;;19.92;100.00;96431.50;4966118;28;20046;-74
2022/08/19 08:58:26;;;;;;;32.25;22.50;;;;;;;20.02;100.00;96421.22;4967190;28;20517;-74
2022/08/19 09:00:51;;;;;;;33.85;23.02;;;;;;;20.17;100.00;96420.03;4967512;28;20121;-73
2022/08/19 09:03:22;;;;;;;33.25;20.90;;;;;;;20.44;100.00;96423.69;4968494;28;20053;-73
2022/08/19 09:06:06;;;;;;;;;;;;;;;20.70;100.00;96426.53;4938115;28;20074;-74
2022/08/19 09:08:53;;;;;;;28.23;18.92;;;;;;;20.84;100.00;96416.34;4967846;28;19999;-73
2022/08/19 09:11:33;;;;;;;29.38;16.98;;;;;;;20.92;100.00;96415.56;4971870;28;20053;-74
2022/08/19 09:14:04;;;;;;;21.85;16.50;;;;;;;20.98;100.00;96410.78;4971056;28;20030;-74
2022/08/19 09:16:30;;;;;;;24.52;17.17;;;;;;;20.87;100.00;96413.00;4971184;28;20042;-74
2022/08/19 09:19:04;;;;;;;21.73;15.75;;;;;;;21.30;100.00;96415.03;4971154;28;20559;-74
2022/08/19 09:21:29;;;;;;;20.75;13.45;;;;;;;21.49;100.00;96404.69;4987214;28;20329;-74
2022/08/19 09:23:55;;;;;;;18.45;12.32;;;;;;;21.44;100.00;96402.09;4970941;28;20039;-74
2022/08/19 09:26:22;;;;;;;18.77;12.18;;;;;;;21.62;100.00;96411.06;4971780;28;20039;-74
2022/08/19 09:28:52;;;;;;;21.58;12.73;;;;;;;21.80;100.00;96401.00;4969161;28;20050;-73
2022/08/19 09:31:26;;;;;;;17.67;11.23;;;;;;;22.01;100.00;96420.97;4971523;28;20057;-73
2022/08/19 09:33:56;;;;;;;17.10;10.75;;;;;;;21.71;100.00;96406.41;4970450;28;20121;-73
2022/08/19 09:36:24;;;;;;;16.42;9.75;;;;;;;21.94;100.00;96405.16;4989503;28;20069;-73
2022/08/19 09:38:51;;;;;;;17.17;9.35;;;;;;;22.13;100.00;96399.38;4970182;28;20173;-73
2022/08/19 09:41:22;;;;;;;12.40;7.97;;;;;;;22.13;100.00;96404.81;4973196;28;20038;-74
2022/08/19 09:43:57;;;;;;;11.93;8.27;;;;;;;22.24;100.00;96405.25;4971353;28;20039;-74
2022/08/19 09:46:26;;;;;;;14.27;8.57;;;;;;;22.56;100.00;96412.06;4971461;28;20929;-74
2022/08/19 09:48:52;;;;;;;14.57;7.15;;;;;;;22.86;100.00;96410.19;4970629;28;20251;-74
2022/08/19 09:51:22;;;;;;;11.10;6.78;;;;;;;22.66;100.00;96414.44;4971624;28;20497;-73
2022/08/19 09:53:53;;;;;;;9.33;6.63;;;;;;;22.89;100.00;96412.28;4969987;28;20165;-74
2022/08/19 09:56:20;;;;;;;14.88;8.73;;;;;;;22.88;100.00;96413.41;4968029;28;20050;-74
2022/08/19 09:58:46;;;;;;;9.93;6.90;;;;;;;23.13;99.52;96408.16;4969059;28;20090;-74
2022/08/19 10:01:20;;;;;;;15.57;8.70;;;;;;;23.30;100.00;96399.84;4970644;28;20540;-74
2022/08/19 10:03:52;;;;;;;11.43;7.75;;;;;;;23.51;95.97;96397.13;4968484;28;20074;-74
2022/08/19 10:06:18;;;;;;;12.02;7.70;;;;;;;23.48;94.07;96409.50;4970591;28;20465;-74
2022/08/19 10:08:44;;;;;;;10.48;7.03;;;;;;;23.57;96.53;96399.31;4970157;28;20085;-74
2022/08/19 10:11:09;;;;;;;12.18;8.27;;;;;;;23.32;98.35;96398.38;4968388;28;20042;-74
2022/08/19 10:13:35;;;;;;;11.25;8.27;;;;;;;23.68;98.01;96393.50;4990097;28;20057;-74
2022/08/19 10:16:22;;;;;;;9.85;7.18;;;;;;;23.46;96.49;96403.56;4970553;28;20196;-74
2022/08/19 10:18:48;;;;;;;13.98;9.80;;;;;;;23.72;97.10;96402.59;4968480;28;20042;-74
2022/08/19 10:21:17;;;;;;;10.20;7.20;;;;;;;23.78;94.42;96398.53;4970491;28;20038;-74
2022/08/19 10:23:46;;;;;;;11.35;6.85;;;;;;;23.90;94.97;96393.94;4969596;28;20035;-74
2022/08/19 10:26:14;;;;;;;7.35;5.65;;;;;;;24.10;91.87;96396.94;4970164;28;20282;-74
2022/08/19 10:28:40;;;;;;;11.57;7.35;;;;;;;24.31;90.12;96381.28;4971198;28;20045;-74
2022/08/19 10:31:30;;;;;;;9.90;6.25;;;;;;;24.63;88.57;96381.59;4969432;28;20054;-74
2022/08/19 10:33:59;;;;;;;8.48;6.28;;;;;;;24.74;86.45;96386.25;4968466;28;20042;-74
2022/08/19 10:36:43;;;;;;;9.80;6.75;;;;;;;25.04;85.09;96379.78;4970923;28;20038;-74
2022/08/19 10:39:09;;;;;;;9.10;6.38;;;;;;;25.32;86.85;96385.38;4278967;28;10000227;-74
2022/08/19 10:41:37;;;;;;;11.60;6.85;;;;;;;25.43;86.85;96378.25;4969455;28;20057;-74
2022/08/19 10:44:06;;;;;;;11.90;7.15;;;;;;;25.56;83.69;96380.63;4933875;28;20038;-74
2022/08/19 10:46:36;;;;;;;10.90;5.55;;;;;;;26.09;78.46;96375.88;4965470;28;20052;-74
2022/08/19 10:49:04;;;;;;;7.65;5.65;;;;;;;26.48;76.97;96364.38;4966188;28;20136;-74
2022/08/19 10:54:16;;;;;;;8.43;5.38;;;;;;;27.12;76.21;96372.22;4966728;28;20584;-74
2022/08/19 10:56:54;;;;;;;9.52;7.50;;;;;;;27.55;68.23;96364.13;4953165;28;20043;-74
2022/08/19 10:59:27;;;;;;;11.30;6.75;;;;;;;28.48;60.29;96356.56;4966779;28;20034;-74
2022/08/19 11:01:54;;;;;;;9.52;6.47;;;;;;;30.02;51.27;96351.31;4967109;28;20191;-74
2022/08/19 11:04:20;;;;;;;11.90;7.05;;;;;;;31.26;45.87;96362.75;4968368;28;20061;-74
2022/08/19 11:06:49;;;;;;;10.05;7.38;;;;;;;29.68;52.43;96358.81;4967969;28;20040;-74
2022/08/19 11:09:17;;;;;;;11.18;7.22;;;;;;;27.67;66.78;96364.03;4965625;28;20141;-74
2022/08/19 11:11:43;;;;;;;10.68;6.70;;;;;;;31.27;45.94;96361.56;4966768;28;20565;-74
2022/08/19 11:14:13;;;;;;;7.80;6.43;;;;;;;33.73;36.39;96341.81;4968955;28;20804;-74
2022/08/19 11:16:40;;;;;;;;;;;;;;;35.00;33.31;96345.03;4969500;28;20726;-74
2022/08/19 11:19:07;;;;;;;7.18;5.18;;;;;;;35.57;32.01;96350.06;4968058;28;20148;-74
2022/08/19 11:21:39;;;;;;;8.98;5.90;;;;;;;33.04;35.88;96347.88;4965767;28;20401;-74
2022/08/19 11:24:08;;;;;;;7.95;5.80;;;;;;;32.20;37.46;96345.38;4963562;28;20489;-74
2022/08/19 11:26:34;;;;;;;8.50;5.95;;;;;;;34.53;34.86;96347.34;4966877;28;20049;-74
2022/08/19 11:29:00;;;;;;;8.27;5.90;;;;;;;34.99;33.37;96349.00;4967441;28;20042;-74
2022/08/19 11:31:30;;;;;;;7.88;5.85;;;;;;;36.61;30.60;96355.09;4966796;28;20424;-74
2022/08/19 11:33:59;;;;;;;7.90;5.20;;;;;;;36.39;29.97;96348.25;4964584;28;20065;-74